Time;durP1;ratioP1;P1;durP2;ratioP2;P2;SDS_P1;SDS_P2;PMS_P1;PMS_P2;Temp;Humidity;BMP_temperature;BMP_pressure;BME280_temperature;BME280_humidity;BME280_pressure;Samples;Min_cycle;Max_cycle;Signal;HPM_P1;HPM_P2
2022/06/23 00:01:23;;;;;;;22.70;9.30;;;;;;;24.74;55.12;93731.66;5037979;28;20285;-62
2022/06/23 00:04:13;;;;;;;20.27;9.87;;;;;;;24.72;53.78;93739.50;5047185;28;20702;-62
2022/06/23 00:06:57;;;;;;;23.47;10.47;;;;;;;24.56;54.66;93732.06;5049386;28;20197;-62
2022/06/23 00:09:44;;;;;;;27.00;11.53;;;;;;;23.98;59.06;93719.63;5049592;28;20233;-62
2022/06/23 00:12:30;;;;;;;32.93;12.73;;;;;;;24.11;58.37;93716.28;5045504;28;20244;-62
2022/06/23 00:15:25;;;;;;;25.33;11.93;;;;;;;24.49;58.67;93719.09;5047937;28;20272;-62
2022/06/23 00:18:27;;;;;;;32.07;13.40;;;;;;;24.34;59.01;93723.13;5045404;28;20566;-62
2022/06/23 00:21:27;;;;;;;25.70;11.17;;;;;;;24.77;55.84;93732.38;5042458;28;20211;-62
2022/06/23 00:24:19;;;;;;;33.83;12.43;;;;;;;24.72;56.14;93734.47;5048247;28;20202;-62
2022/06/23 00:27:04;;;;;;;27.70;12.37;;;;;;;24.53;57.08;93727.75;5053011;28;20302;-62
2022/06/23 00:29:49;;;;;;;28.83;13.00;;;;;;;24.78;55.66;93736.72;5046210;28;20259;-62
2022/06/23 00:32:33;;;;;;;32.87;14.83;;;;;;;24.62;57.82;93730.75;5052686;28;20229;-62
2022/06/23 00:35:18;;;;;;;33.93;13.43;;;;;;;24.86;56.61;93725.38;5051773;28;20363;-62
2022/06/23 00:38:02;;;;;;;37.37;16.50;;;;;;;24.65;58.01;93717.88;5048032;28;20205;-62
2022/06/23 00:40:46;;;;;;;34.20;13.90;;;;;;;25.03;57.45;93721.34;5052841;28;20212;-61
2022/06/23 00:43:31;;;;;;;29.17;12.97;;;;;;;25.37;54.51;93724.66;5046914;28;20676;-62
2022/06/23 00:46:37;;;;;;;32.70;11.77;;;;;;;25.04;56.18;93728.53;5051446;28;20226;-62
2022/06/23 00:49:56;;;;;;;22.53;10.80;;;;;;;25.22;55.87;93725.19;5044878;28;20568;-62
2022/06/23 00:52:49;;;;;;;26.27;12.57;;;;;;;25.04;56.41;93728.53;5041398;28;20198;-62
2022/06/23 00:55:45;;;;;;;32.83;12.37;;;;;;;25.07;55.91;93727.13;5046029;28;20714;-62
2022/06/23 00:58:44;;;;;;;32.53;12.73;;;;;;;25.35;54.23;93721.06;5043337;28;20625;-62
2022/06/23 01:01:40;;;;;;;30.63;12.80;;;;;;;25.04;57.11;93722.78;5049387;28;20232;-62
2022/06/23 01:04:40;;;;;;;23.77;11.33;;;;;;;25.24;55.54;93734.53;5052677;28;20293;-62
2022/06/23 01:07:27;;;;;;;30.53;12.93;;;;;;;25.17;55.25;93727.28;5047818;28;20201;-62
2022/06/23 01:10:24;;;;;;;29.33;12.33;;;;;;;25.02;56.09;93737.09;5051269;28;20224;-62
2022/06/23 01:13:31;;;;;;;25.00;11.83;;;;;;;24.88;57.45;93739.72;5042723;28;20264;-62
2022/06/23 01:16:21;;;;;;;30.77;11.63;;;;;;;25.16;56.30;93743.03;5047374;28;20276;-62
2022/06/23 01:19:24;;;;;;;22.40;10.37;;;;;;;25.23;56.53;93738.84;5052185;28;20706;-62
2022/06/23 01:22:20;;;;;;;27.37;10.57;;;;;;;25.44;54.85;93744.81;5048494;28;20193;-63
2022/06/23 01:25:16;;;;;;;23.63;10.77;;;;;;;25.48;54.34;93750.63;5054067;28;20202;-62
2022/06/23 01:28:18;;;;;;;27.87;10.50;;;;;;;25.57;54.67;93746.44;5049694;28;20289;-62
2022/06/23 01:31:12;;;;;;;20.90;10.70;;;;;;;25.38;55.08;93754.78;5048387;28;20197;-63
2022/06/23 01:34:09;;;;;;;28.13;10.00;;;;;;;25.48;54.98;93751.34;5049715;28;20201;-62
2022/06/23 01:37:01;;;;;;;27.20;10.00;;;;;;;25.33;55.70;93753.28;5047369;28;20256;-62
2022/06/23 01:40:12;;;;;;;28.07;9.77;;;;;;;25.70;54.40;93753.78;5046152;28;20282;-63
2022/06/23 01:43:11;;;;;;;22.63;8.63;;;;;;;25.58;54.36;93759.38;5041355;28;20276;-62
2022/06/23 01:46:11;;;;;;;25.53;9.20;;;;;;;25.61;54.36;93752.25;5050316;28;20202;-62
2022/06/23 01:49:19;;;;;;;25.90;8.83;;;;;;;25.59;54.81;93755.09;5048964;28;20229;-63
2022/06/23 01:52:09;;;;;;;18.90;8.63;;;;;;;25.54;54.61;93753.56;5050900;28;20212;-62
2022/06/23 01:55:01;;;;;;;21.23;8.83;;;;;;;25.55;55.13;93760.75;5049291;28;20233;-62
2022/06/23 01:57:52;;;;;;;23.67;8.50;;;;;;;25.59;54.10;93749.34;5052317;28;20189;-62
2022/06/23 02:00:42;;;;;;;17.40;9.30;;;;;;;25.28;55.49;93756.81;5051231;28;20209;-62
2022/06/23 02:03:36;;;;;;;23.53;9.13;;;;;;;25.62;54.22;93750.81;5047663;28;20300;-62
2022/06/23 02:06:40;;;;;;;26.00;9.13;;;;;;;25.54;54.53;93765.03;5044723;28;20226;-62
2022/06/23 02:13:41;;;;;;;24.70;9.90;;;;;;;25.75;53.88;93766.75;5046477;28;20312;-62
2022/06/23 02:16:41;;;;;;;26.83;9.50;;;;;;;25.60;54.20;93774.47;5047722;28;20232;-63
2022/06/23 02:19:38;;;;;;;20.87;9.50;;;;;;;25.61;53.27;93775.94;5051540;28;20201;-63
2022/06/23 02:22:34;;;;;;;16.57;8.87;;;;;;;25.50;53.04;93782.19;5049489;28;20308;-62
2022/06/23 02:25:23;;;;;;;30.37;10.30;;;;;;;25.34;53.88;93780.56;5049739;28;20198;-63
2022/06/23 02:28:21;;;;;;;17.00;8.83;;;;;;;25.07;53.69;93775.88;5043775;28;20625;-62
2022/06/23 02:31:11;;;;;;;31.07;11.10;;;;;;;24.93;55.15;93779.25;5048613;28;20289;-62
2022/06/23 02:34:05;;;;;;;23.50;9.60;;;;;;;24.80;54.01;93785.47;5051653;28;20197;-63
2022/06/23 02:37:07;;;;;;;17.10;9.20;;;;;;;24.57;54.72;93776.50;5047515;28;20197;-63
2022/06/23 02:39:55;;;;;;;31.73;10.40;;;;;;;24.49;54.82;93779.25;5045868;28;20301;-63
2022/06/23 02:42:40;;;;;;;26.63;10.57;;;;;;;24.42;55.80;93783.44;5040152;28;20210;-63
2022/06/23 02:45:46;;;;;;;33.40;11.57;;;;;;;24.58;54.10;93789.41;5053863;28;20247;-62
2022/06/23 02:48:48;;;;;;;42.77;11.93;;;;;;;24.31;55.13;93784.66;5043801;28;20201;-62
2022/06/23 02:51:54;;;;;;;31.90;12.03;;;;;;;24.47;54.59;93782.06;5049680;28;20205;-62
2022/06/23 02:54:44;;;;;;;23.73;11.17;;;;;;;24.51;54.96;93784.25;5049041;28;20204;-62
2022/06/23 02:57:34;;;;;;;29.47;12.43;;;;;;;24.78;53.81;93789.03;5044528;28;20283;-62
2022/06/23 03:00:27;;;;;;;35.43;13.27;;;;;;;24.75;54.76;93796.13;5053449;28;20252;-62
2022/06/23 03:03:42;;;;;;;28.17;12.50;;;;;;;24.80;55.69;93796.94;5050597;28;20226;-62
2022/06/23 03:06:58;;;;;;;36.60;13.00;;;;;;;24.90;54.91;93799.97;5049443;28;20574;-62
2022/06/23 03:09:46;;;;;;;33.60;12.67;;;;;;;25.09;53.84;93793.09;5049558;28;20725;-62
2022/06/23 03:12:49;;;;;;;26.17;11.83;;;;;;;24.88;55.82;93797.03;5038465;28;20331;-62
2022/06/23 03:15:51;;;;;;;27.83;11.33;;;;;;;24.89;55.16;93799.25;5043879;28;20218;-62
2022/06/23 03:19:02;;;;;;;27.37;12.93;;;;;;;25.04;55.46;93799.47;5044738;28;20582;-62
2022/06/23 03:22:01;;;;;;;28.83;11.10;;;;;;;25.18;54.94;93803.25;5041277;28;20204;-62
2022/06/23 03:25:06;;;;;;;28.77;10.30;;;;;;;25.31;54.44;93807.75;5045014;28;20194;-62
2022/06/23 03:28:19;;;;;;;29.50;10.27;;;;;;;25.34;54.41;93805.66;5049352;28;20247;-63
2022/06/23 03:31:11;;;;;;;25.53;10.37;;;;;;;25.55;53.61;93803.78;5048473;28;20698;-63
2022/06/23 03:34:29;;;;;;;25.63;10.50;;;;;;;25.60;54.54;93808.19;5047347;28;20288;-62
2022/06/23 03:37:20;;;;;;;24.93;10.70;;;;;;;25.54;54.11;93805.22;5049626;28;20670;-62
2022/06/23 03:43:36;;;;;;;21.07;9.90;;;;;;;25.37;54.42;93810.72;5042835;28;20232;-62
2022/06/23 03:46:26;;;;;;;20.70;9.73;;;;;;;25.20;55.37;93809.03;5049202;28;20196;-62
2022/06/23 03:49:24;;;;;;;26.00;10.27;;;;;;;25.01;55.53;93810.19;5049726;28;20206;-62
2022/06/23 03:52:27;;;;;;;25.30;12.27;;;;;;;24.95;55.93;93807.22;5045768;28;20204;-63
2022/06/23 03:55:24;;;;;;;23.70;11.97;;;;;;;24.75;55.79;93812.63;5043946;28;20221;-63
2022/06/23 03:58:14;;;;;;;32.90;12.17;;;;;;;25.06;54.05;93811.69;5049457;28;20716;-63
2022/06/23 04:01:04;;;;;;;22.17;11.40;;;;;;;25.08;54.50;93808.84;5046039;28;20639;-63
2022/06/23 04:04:23;;;;;;;28.30;10.97;;;;;;;25.00;54.14;93813.75;5055032;28;20268;-63
2022/06/23 04:07:45;;;;;;;26.13;12.80;;;;;;;24.97;55.48;93815.88;5045485;28;20204;-63
2022/06/23 04:10:44;;;;;;;29.87;13.70;;;;;;;24.56;56.88;93817.31;5048459;28;20229;-63
2022/06/23 04:13:33;;;;;;;26.57;12.43;;;;;;;24.89;56.40;93822.19;5053596;28;20212;-62
2022/06/23 04:16:24;;;;;;;23.97;12.00;;;;;;;24.67;57.46;93816.06;5048753;28;20297;-63
2022/06/23 04:19:21;;;;;;;25.70;11.50;;;;;;;24.67;56.70;93818.94;5052321;28;20201;-65
2022/06/23 04:22:15;;;;;;;29.13;10.20;;;;;;;25.07;56.01;93824.59;5048828;28;20197;-65
2022/06/23 04:25:02;;;;;;;20.90;10.67;;;;;;;25.39;54.68;93822.22;5052613;28;20248;-66
2022/06/23 04:27:50;;;;;;;22.47;9.00;;;;;;;25.40;54.86;93831.56;5045484;28;20290;-63
2022/06/23 04:30:39;;;;;;;18.70;8.47;;;;;;;25.63;54.98;93829.75;5052890;28;20248;-63
2022/06/23 04:33:26;;;;;;;19.43;8.27;;;;;;;25.84;54.31;93830.72;5052537;28;20255;-63
2022/06/23 04:36:20;;;;;;;18.50;7.30;;;;;;;25.77;53.41;93832.81;5058675;28;20245;-63
2022/06/23 04:39:39;;;;;;;12.80;7.43;;;;;;;25.63;54.02;93838.34;5052000;28;20209;-63
2022/06/23 04:42:26;;;;;;;15.73;7.37;;;;;;;25.76;54.31;93832.06;5039598;28;20209;-63
2022/06/23 04:45:33;;;;;;;16.87;6.23;;;;;;;25.73;54.83;93827.75;5044596;28;20614;-65
2022/06/23 04:48:39;;;;;;;14.30;5.30;;;;;;;25.96;53.78;93825.88;5049593;28;20205;-65
2022/06/23 04:51:26;;;;;;;17.97;5.40;;;;;;;25.98;53.98;93823.03;5044214;28;20809;-65
2022/06/23 04:54:10;;;;;;;13.63;4.67;;;;;;;25.84;54.63;93814.22;5051907;28;20260;-65
2022/06/23 04:57:10;;;;;;;11.20;5.13;;;;;;;26.46;52.27;93819.25;5047535;28;20288;-65
2022/06/23 04:59:59;;;;;;;12.50;5.20;;;;;;;26.32;52.55;93813.34;5049677;28;20214;-65
2022/06/23 05:02:51;;;;;;;14.10;3.70;;;;;;;26.12;53.42;93816.69;5056768;28;20294;-65
2022/06/23 05:05:36;;;;;;;10.80;4.03;;;;;;;26.43;51.55;93823.53;5046923;28;20202;-65
2022/06/23 05:08:26;;;;;;;8.80;2.97;;;;;;;26.30;52.20;93816.94;5052929;28;20645;-65
2022/06/23 05:11:31;;;;;;;10.03;2.67;;;;;;;26.24;52.14;93807.50;5048167;28;20225;-66
2022/06/23 05:14:26;;;;;;;7.03;2.87;;;;;;;26.77;50.64;93809.47;5051251;28;20800;-66
2022/06/23 05:17:27;;;;;;;8.60;3.00;;;;;;;27.20;49.64;93812.72;5049227;28;20619;-65
2022/06/23 05:20:20;;;;;;;9.37;3.90;;;;;;;27.35;49.39;93811.38;5050615;28;20197;-66
2022/06/23 05:23:13;;;;;;;10.47;2.83;;;;;;;27.49;49.40;93807.84;5045722;28;20205;-66
2022/06/23 05:26:08;;;;;;;6.47;3.00;;;;;;;28.15;48.27;93807.47;5042061;28;20701;-66
2022/06/23 05:29:01;;;;;;;12.70;2.97;;;;;;;28.27;47.86;93807.53;5036917;28;20221;-66
2022/06/23 05:31:51;;;;;;;11.47;2.53;;;;;;;28.26;46.67;93808.97;5046199;28;20286;-66
2022/06/23 05:34:46;;;;;;;8.57;2.87;;;;;;;27.99;48.17;93810.28;5045465;28;20251;-66
2022/06/23 05:37:43;;;;;;;8.07;2.73;;;;;;;28.51;47.41;93822.00;5057980;28;20279;-66
2022/06/23 05:40:40;;;;;;;9.37;2.90;;;;;;;28.02;48.37;93815.34;5055372;28;20753;-66
2022/06/23 05:43:26;;;;;;;9.13;3.10;;;;;;;28.33;48.03;93812.59;5043141;28;20201;-66
2022/06/23 05:46:18;;;;;;;11.80;3.03;;;;;;;28.89;46.44;93806.91;5050067;28;20330;-66
2022/06/23 05:49:38;;;;;;;10.30;3.17;;;;;;;28.84;46.77;93813.41;5049786;28;20197;-66
2022/06/23 05:52:29;;;;;;;12.03;2.53;;;;;;;27.92;48.36;93811.69;5042319;28;20289;-66
2022/06/23 05:55:32;;;;;;;8.90;2.70;;;;;;;27.64;48.97;93818.06;5044547;28;20276;-66
2022/06/23 05:58:35;;;;;;;8.17;2.67;;;;;;;26.61;52.83;93815.06;5033393;28;20201;-66
2022/06/23 06:01:29;;;;;;;8.30;2.40;;;;;;;27.59;50.42;93820.16;5041986;28;20212;-65
2022/06/23 06:04:36;;;;;;;10.03;2.90;;;;;;;28.66;47.49;93819.84;5058318;28;20217;-66
2022/06/23 06:07:26;;;;;;;9.77;2.63;;;;;;;28.75;47.77;93820.63;5034676;28;20209;-66
2022/06/23 06:10:17;;;;;;;9.13;2.67;;;;;;;29.07;46.17;93823.50;5050301;28;20672;-66
2022/06/23 06:13:07;;;;;;;8.83;2.80;;;;;;;29.03;46.42;93825.69;5043372;28;20205;-64
2022/06/23 06:15:55;;;;;;;16.70;3.43;;;;;;;29.25;46.09;93829.31;5046807;28;20212;-64
2022/06/23 06:18:42;;;;;;;9.43;2.85;;;;;;;29.71;44.93;93836.47;5039410;28;20201;-64
2022/06/23 06:21:26;;;;;;;12.07;3.17;;;;;;;30.13;43.86;93836.34;5040196;28;20264;-63
2022/06/23 06:24:36;;;;;;;10.55;3.30;;;;;;;29.87;44.65;93841.50;5046214;28;20690;-64
2022/06/23 06:27:21;;;;;;;14.27;3.17;;;;;;;29.57;45.20;93839.38;5040223;28;20256;-64
2022/06/23 06:30:10;;;;;;;9.18;2.75;;;;;;;29.67;44.58;93836.47;5040653;28;20256;-64
2022/06/23 06:32:55;;;;;;;12.00;2.80;;;;;;;29.73;43.78;93845.84;5042021;28;20210;-65
2022/06/23 06:35:43;;;;;;;10.75;2.92;;;;;;;29.72;44.49;93846.56;5044878;28;20225;-64
2022/06/23 06:38:29;;;;;;;8.98;3.53;;;;;;;30.04;43.33;93837.84;5050241;28;20251;-64
2022/06/23 06:41:13;;;;;;;13.60;3.90;;;;;;;30.58;43.23;93841.94;5048435;28;20573;-65
2022/06/23 06:44:01;;;;;;;8.75;2.92;;;;;;;30.33;43.59;93826.16;5037336;28;20211;-64
2022/06/23 06:46:45;;;;;;;9.70;3.55;;;;;;;29.72;42.14;93832.13;5044552;28;20296;-65
2022/06/23 06:49:31;;;;;;;10.35;2.95;;;;;;;30.31;41.69;93834.81;5041188;28;20201;-64
2022/06/23 06:52:16;;;;;;;12.82;2.95;;;;;;;30.55;41.28;93841.22;5046355;28;20251;-64
2022/06/23 06:55:14;;;;;;;7.15;2.30;;;;;;;30.24;41.48;93845.00;5040039;28;20226;-64
2022/06/23 06:58:15;;;;;;;6.53;1.83;;;;;;;30.12;37.70;93843.56;5044776;28;20244;-64
2022/06/23 07:01:05;;;;;;;12.18;2.17;;;;;;;30.53;36.70;93843.44;5045512;28;20293;-64
2022/06/23 07:03:52;;;;;;;7.55;1.95;;;;;;;31.47;35.32;93844.22;5045910;28;20225;-64
2022/06/23 07:06:47;;;;;;;8.25;1.63;;;;;;;31.40;35.03;93857.31;5048060;28;20209;-64
2022/06/23 07:09:51;;;;;;;9.43;2.47;;;;;;;31.72;34.49;93847.63;5044456;28;20624;-64
2022/06/23 07:12:55;;;;;;;7.25;1.48;;;;;;;32.01;33.23;93842.25;5043988;28;20279;-64
2022/06/23 07:15:49;;;;;;;5.32;1.33;;;;;;;32.48;31.98;93843.16;5038919;28;20240;-64
2022/06/23 07:18:41;;;;;;;4.18;1.50;;;;;;;30.67;34.27;93846.25;5040003;28;20198;-64
2022/06/23 07:21:34;;;;;;;5.32;1.40;;;;;;;32.40;32.14;93851.25;5041701;28;20252;-64
2022/06/23 07:24:26;;;;;;;4.30;1.38;;;;;;;32.48;31.49;93845.31;5047360;28;20201;-64
2022/06/23 07:27:14;;;;;;;3.20;1.23;;;;;;;32.59;30.91;93845.94;5044930;28;20202;-64
2022/06/23 07:30:39;;;;;;;7.18;1.85;;;;;;;32.96;30.34;93846.16;5039660;28;20745;-64
2022/06/23 07:33:40;;;;;;;5.15;1.50;;;;;;;33.15;29.54;93848.00;5041185;28;20313;-63
2022/06/23 07:36:28;;;;;;;9.68;2.42;;;;;;;31.13;37.12;93842.34;5047177;28;20642;-64
2022/06/23 07:39:42;;;;;;;6.47;2.40;;;;;;;32.45;35.24;93838.84;5048897;28;20739;-64
2022/06/23 07:42:51;;;;;;;7.57;2.10;;;;;;;32.76;34.03;93835.56;5035366;28;20389;-63
2022/06/23 07:45:42;;;;;;;4.75;1.70;;;;;;;33.60;32.17;93832.78;5041219;28;20736;-64
2022/06/23 07:48:31;;;;;;;8.90;2.60;;;;;;;33.07;33.89;93827.84;5040059;28;20197;-64
2022/06/23 07:51:17;;;;;;;5.32;1.88;;;;;;;33.50;32.14;93822.06;5039609;28;20322;-64
2022/06/23 07:54:01;;;;;;;6.65;1.67;;;;;;;34.68;29.21;93835.09;5040478;28;20674;-64
2022/06/23 07:56:46;;;;;;;4.50;1.67;;;;;;;34.98;29.86;93830.06;5045092;28;20634;-64
2022/06/23 07:59:40;;;;;;;8.05;1.98;;;;;;;32.15;32.74;93824.72;5042591;28;20283;-64
2022/06/23 08:02:31;;;;;;;7.60;1.73;;;;;;;34.05;30.01;93827.63;5037409;28;20304;-64
2022/06/23 08:05:32;;;;;;;8.02;1.80;;;;;;;34.37;29.05;93825.56;5043457;28;20264;-64
2022/06/23 08:08:22;;;;;;;6.80;1.85;;;;;;;33.99;30.64;93830.66;5047866;28;20200;-65
2022/06/23 08:14:19;;;;;;;7.63;2.33;;;;;;;34.67;29.54;93822.00;5045153;28;20734;-65
2022/06/23 08:17:11;;;;;;;6.35;2.22;;;;;;;35.12;29.99;93818.09;5044755;28;20260;-65
2022/06/23 08:20:00;;;;;;;10.82;2.05;;;;;;;35.09;30.23;93817.44;5043098;28;20312;-65
2022/06/23 08:22:46;;;;;;;6.00;1.67;;;;;;;35.57;29.45;93814.81;5041619;28;20205;-66
2022/06/23 08:25:30;;;;;;;7.60;2.38;;;;;;;36.62;27.81;93817.06;5045204;28;20197;-64
2022/06/23 08:28:16;;;;;;;6.63;2.40;;;;;;;36.68;27.00;93817.63;5043137;28;20218;-64
2022/06/23 08:31:03;;;;;;;4.03;1.90;;;;;;;34.95;29.06;93809.00;5038351;28;20264;-64
2022/06/23 08:33:47;;;;;;;10.48;2.20;;;;;;;33.26;32.73;93802.16;5042919;28;20217;-64
2022/06/23 08:36:47;;;;;;;8.27;1.98;;;;;;;33.39;33.17;93808.47;5047860;28;20233;-64
2022/06/23 08:39:58;;;;;;;7.88;2.47;;;;;;;33.15;33.54;93801.56;5047655;28;20700;-65
2022/06/23 08:42:57;;;;;;;7.85;2.20;;;;;;;33.10;33.57;93808.91;5038899;28;20204;-64
2022/06/23 08:45:50;;;;;;;6.35;2.20;;;;;;;35.20;29.94;93797.53;5032712;28;20216;-64
2022/06/23 08:48:44;;;;;;;14.98;2.47;;;;;;;34.78;30.47;93802.84;5044713;28;20748;-64
2022/06/23 08:51:49;;;;;;;7.32;2.60;;;;;;;36.30;29.61;93807.78;5042778;28;20301;-64
2022/06/23 08:54:54;;;;;;;12.15;2.47;;;;;;;35.75;28.43;93793.25;5046211;28;20588;-65
2022/06/23 08:57:56;;;;;;;8.93;1.92;;;;;;;35.97;29.69;93798.50;5051969;28;20858;-64
2022/06/23 09:00:56;;;;;;;6.45;2.00;;;;;;;37.10;25.97;93798.09;5042999;28;20236;-64
2022/06/23 09:03:57;;;;;;;7.00;2.03;;;;;;;37.13;26.95;93795.84;5045191;28;20356;-65
2022/06/23 09:07:04;;;;;;;7.50;2.10;;;;;;;37.69;25.69;93799.13;5052170;28;20670;-65
2022/06/23 09:10:39;;;;;;;6.75;2.10;;;;;;;39.14;23.44;93798.19;5047702;28;20297;-65
2022/06/23 09:13:42;;;;;;;6.85;2.22;;;;;;;38.12;24.51;93792.50;5046823;28;20277;-65
2022/06/23 09:16:47;;;;;;;6.85;2.10;;;;;;;38.78;23.94;93794.47;5049467;28;20271;-65
2022/06/23 09:19:41;;;;;;;8.93;2.30;;;;;;;37.85;24.02;93783.94;5052079;28;20682;-65
2022/06/23 09:22:47;;;;;;;8.93;2.05;;;;;;;36.64;25.94;93784.94;5039078;28;20674;-65
2022/06/23 09:25:39;;;;;;;5.43;2.08;;;;;;;38.73;24.48;93781.47;5051175;28;20236;-65
2022/06/23 09:28:44;;;;;;;7.38;2.25;;;;;;;38.84;23.64;93774.44;5048026;28;20204;-65
2022/06/23 09:31:46;;;;;;;7.05;1.77;;;;;;;39.22;23.14;93774.44;5043644;28;20197;-65
2022/06/23 09:35:01;;;;;;;5.80;1.90;;;;;;;39.01;23.77;93773.84;5040247;28;20619;-65
2022/06/23 09:38:00;;;;;;;8.00;1.70;;;;;;;36.47;25.26;93773.72;5048738;28;20209;-65
2022/06/23 09:40:57;;;;;;;8.05;1.95;;;;;;;38.23;23.38;93763.59;5046537;28;20201;-65
2022/06/23 09:44:24;;;;;;;7.63;1.77;;;;;;;40.30;21.87;93768.41;5046457;28;20197;-65
2022/06/23 09:47:19;;;;;;;4.93;1.80;;;;;;;39.71;22.62;93766.56;5050550;28;20687;-65
2022/06/23 09:50:26;;;;;;;8.32;2.00;;;;;;;40.83;21.20;93760.09;5049898;28;20201;-66
2022/06/23 09:53:35;;;;;;;6.93;1.58;;;;;;;40.54;20.99;93757.06;5052183;28;20734;-66
2022/06/23 09:56:37;;;;;;;6.82;2.15;;;;;;;41.47;21.24;93758.50;5043492;28;20583;-65
2022/06/23 09:59:42;;;;;;;7.13;2.03;;;;;;;40.91;21.73;93756.78;5046048;28;20212;-66
2022/06/23 10:02:48;;;;;;;7.97;2.10;;;;;;;41.42;20.61;93754.31;5050516;28;20230;-68
2022/06/23 10:06:10;;;;;;;7.85;1.90;;;;;;;41.49;21.03;93753.25;5050600;28;20317;-68
2022/06/23 10:09:08;;;;;;;6.00;1.88;;;;;;;41.08;19.93;93747.91;5045520;28;20232;-67
2022/06/23 10:12:07;;;;;;;7.22;2.42;;;;;;;42.08;20.00;93752.50;5036774;28;20201;-66
2022/06/23 10:15:06;;;;;;;7.82;1.80;;;;;;;43.10;19.70;93748.44;5047892;28;20228;-66
2022/06/23 10:18:08;;;;;;;8.43;2.10;;;;;;;42.42;19.65;93741.13;5049453;28;20244;-66
2022/06/23 10:21:11;;;;;;;3.47;1.65;;;;;;;42.14;19.04;93743.34;5046928;28;20240;-66
2022/06/23 10:24:22;;;;;;;8.55;2.00;;;;;;;43.14;17.71;93742.34;5045722;28;20291;-66
2022/06/23 10:27:23;;;;;;;6.65;1.92;;;;;;;44.43;16.44;93739.19;5048302;28;20205;-66
2022/06/23 10:30:29;;;;;;;7.72;2.00;;;;;;;42.02;18.83;93738.09;5047017;28;20201;-66
2022/06/23 10:33:22;;;;;;;7.70;2.05;;;;;;;42.95;18.58;93744.88;5042643;28;20205;-66
2022/06/23 10:36:12;;;;;;;8.20;1.98;;;;;;;42.82;18.02;93732.34;5046606;28;20738;-67
2022/06/23 10:39:41;;;;;;;4.72;1.75;;;;;;;42.38;17.70;93747.97;5048725;28;20209;-66
2022/06/23 10:42:45;;;;;;;7.05;2.30;;;;;;;44.36;17.62;93741.09;5037753;28;20263;-68
2022/06/23 10:45:33;;;;;;;7.35;2.00;;;;;;;46.77;14.41;93737.69;5049453;28;20193;-67
2022/06/23 10:48:33;;;;;;;5.43;1.77;;;;;;;44.72;16.75;93733.63;5047886;28;20677;-66
2022/06/23 10:51:41;;;;;;;8.18;2.00;;;;;;;44.81;15.86;93722.00;5045086;28;20673;-66
2022/06/23 10:54:34;;;;;;;7.35;2.15;;;;;;;43.06;17.33;93713.28;5043179;28;20251;-67
2022/06/23 10:57:43;;;;;;;5.88;2.05;;;;;;;43.32;17.20;93708.84;5049977;28;20250;-67
2022/06/23 11:00:40;;;;;;;8.35;2.15;;;;;;;44.46;15.97;93714.56;5041135;28;20209;-69
2022/06/23 11:03:30;;;;;;;6.03;1.88;;;;;;;44.93;15.92;93715.31;5048969;28;20772;-69
2022/06/23 11:06:48;;;;;;;7.30;1.80;;;;;;;46.08;14.02;93715.81;5049560;28;20200;-67
2022/06/23 11:09:57;;;;;;;8.52;2.60;;;;;;;46.85;14.58;93709.72;5047394;28;20689;-67
2022/06/23 11:12:42;;;;;;;5.53;1.63;;;;;;;46.43;14.87;93704.53;5040906;28;20223;-67
2022/06/23 11:15:32;;;;;;;12.88;2.15;;;;;;;48.44;14.28;93702.22;5040678;28;20220;-68
2022/06/23 11:18:49;;;;;;;6.88;1.65;;;;;;;48.23;14.43;93703.09;5047264;28;20271;-68
2022/06/23 11:22:11;;;;;;;5.60;1.60;;;;;;;47.68;14.26;93692.44;5042428;28;20231;-68
2022/06/23 11:25:01;;;;;;;7.57;2.28;;;;;;;47.39;13.57;93681.97;5049012;28;20220;-68
2022/06/23 11:28:18;;;;;;;5.47;1.90;;;;;;;46.95;14.37;93676.34;5048519;28;20307;-67
2022/06/23 11:31:11;;;;;;;7.50;1.85;;;;;;;44.59;15.80;93667.91;5043342;28;20248;-68
2022/06/23 11:34:01;;;;;;;8.65;1.58;;;;;;;45.25;15.97;93670.34;5049842;28;20221;-68
2022/06/23 11:36:57;;;;;;;3.47;1.60;;;;;;;47.17;14.08;93668.06;5044931;28;20267;-70
2022/06/23 11:40:07;;;;;;;5.32;1.60;;;;;;;46.74;14.73;93673.41;5044674;28;20254;-70
2022/06/23 11:43:10;;;;;;;5.75;1.60;;;;;;;48.06;13.38;93668.00;5042081;28;20196;-70
2022/06/23 11:46:08;;;;;;;5.55;1.70;;;;;;;47.61;12.89;93661.06;5042633;28;20274;-70
2022/06/23 11:49:09;;;;;;;7.90;1.90;;;;;;;48.64;13.15;93661.97;5049358;28;20209;-70
2022/06/23 11:52:14;;;;;;;5.43;1.40;;;;;;;48.75;13.14;93667.81;5036449;28;20200;-71
2022/06/23 11:55:05;;;;;;;4.57;1.63;;;;;;;48.97;12.89;93654.78;5043511;28;20650;-71
2022/06/23 11:58:13;;;;;;;6.88;1.88;;;;;;;49.07;12.94;93649.59;5050022;28;20606;-70
2022/06/23 12:01:18;;;;;;;4.82;1.33;;;;;;;47.21;13.94;93647.00;5047478;28;20340;-71
2022/06/23 12:04:21;;;;;;;6.63;1.92;;;;;;;48.80;12.80;93636.16;5049946;28;20232;-71
2022/06/23 12:07:08;;;;;;;6.00;1.70;;;;;;;48.50;13.61;93633.34;5048054;28;20191;-70
2022/06/23 12:10:13;;;;;;;4.85;1.98;;;;;;;48.19;12.52;93629.09;5045262;28;20212;-70
2022/06/23 12:13:01;;;;;;;5.05;2.00;;;;;;;46.61;13.81;93620.91;5041871;28;20264;-70
2022/06/23 12:15:50;;;;;;;5.93;1.40;;;;;;;46.36;13.68;93617.59;5048166;28;20228;-69
2022/06/23 12:18:36;;;;;;;8.43;1.95;;;;;;;47.15;12.46;93615.50;5043612;28;20706;-71
2022/06/23 12:21:35;;;;;;;6.35;1.83;;;;;;;45.53;13.32;93605.59;5047115;28;20693;-70
2022/06/23 12:24:33;;;;;;;3.08;1.30;;;;;;;47.11;13.50;93603.94;5052720;28;20728;-70
2022/06/23 12:27:27;;;;;;;7.13;1.85;;;;;;;49.84;11.31;93595.50;5052368;28;20200;-71
2022/06/23 12:30:17;;;;;;;7.38;1.92;;;;;;;49.74;11.75;93600.72;5050709;28;20200;-70
2022/06/23 12:33:20;;;;;;;10.70;1.88;;;;;;;50.74;11.15;93589.06;5046646;28;20212;-71
2022/06/23 12:36:23;;;;;;;6.82;1.60;;;;;;;51.78;10.59;93595.94;5044515;28;20271;-71
2022/06/23 12:39:17;;;;;;;8.73;1.70;;;;;;;49.73;10.68;93587.41;5053053;28;20247;-70
2022/06/23 12:42:12;;;;;;;6.70;1.60;;;;;;;47.70;12.11;93566.81;5044854;28;20715;-71
2022/06/23 12:45:16;;;;;;;9.05;1.80;;;;;;;51.53;10.27;93591.53;5051597;28;20205;-70
2022/06/23 12:48:19;;;;;;;5.75;1.63;;;;;;;50.54;11.33;93580.38;5052826;28;20200;-70
2022/06/23 12:51:07;;;;;;;4.97;1.58;;;;;;;51.32;9.24;93580.75;5051442;28;20263;-70
2022/06/23 12:53:57;;;;;;;9.05;2.10;;;;;;;53.20;9.15;93564.25;5039724;28;20720;-71
2022/06/23 12:56:54;;;;;;;6.28;1.75;;;;;;;54.26;8.10;93578.84;5040369;28;20213;-71
2022/06/23 13:00:21;;;;;;;5.07;1.80;;;;;;;52.11;9.92;93563.66;5052707;28;20258;-70
2022/06/23 13:03:26;;;;;;;7.95;2.25;;;;;;;48.57;11.93;93550.97;5046004;28;20254;-70
2022/06/23 13:06:19;;;;;;;7.47;2.13;;;;;;;52.44;9.63;93561.25;5050074;28;20204;-71
2022/06/23 13:09:16;;;;;;;7.70;1.75;;;;;;;52.60;9.35;93559.66;5049536;28;20290;-71
2022/06/23 13:12:13;;;;;;;4.82;1.60;;;;;;;53.36;8.98;93558.91;5044661;28;20390;-70
2022/06/23 13:15:12;;;;;;;6.90;1.98;;;;;;;53.03;9.27;93552.47;5047906;28;20255;-70
2022/06/23 13:18:04;;;;;;;6.13;2.15;;;;;;;50.62;10.43;93545.41;5041373;28;20205;-70
2022/06/23 13:20:55;;;;;;;3.53;1.50;;;;;;;53.74;7.75;93543.00;5050362;28;20254;-70
2022/06/23 13:24:12;;;;;;;7.50;2.13;;;;;;;53.69;8.04;93545.72;5044532;28;20225;-70
2022/06/23 13:26:56;;;;;;;3.72;1.77;;;;;;;53.15;8.51;93539.31;5045952;28;20606;-71
2022/06/23 13:29:40;;;;;;;7.00;1.80;;;;;;;52.24;10.11;93527.31;5051863;28;20200;-71
2022/06/23 13:32:39;;;;;;;6.28;1.88;;;;;;;53.09;9.08;93530.88;5046795;28;20849;-70
2022/06/23 13:35:38;;;;;;;4.63;1.83;;;;;;;50.47;10.44;93522.13;5046403;28;20197;-69
2022/06/23 13:38:40;;;;;;;7.57;1.92;;;;;;;52.38;10.22;93516.94;5049305;28;20232;-71
2022/06/23 13:41:40;;;;;;;6.32;1.77;;;;;;;50.74;10.81;93511.50;5041443;28;20681;-73
2022/06/23 13:44:46;;;;;;;9.75;2.15;;;;;;;52.58;9.38;93517.28;5046311;28;20287;-71
2022/06/23 13:48:02;;;;;;;8.13;2.00;;;;;;;52.17;10.14;93508.56;5045782;28;20641;-71
2022/06/23 13:51:14;;;;;;;7.78;2.13;;;;;;;50.94;10.82;93503.66;5046830;28;20200;-72
2022/06/23 13:54:34;;;;;;;5.00;2.28;;;;;;;51.34;10.97;93499.22;5044236;28;20634;-72
2022/06/23 13:57:46;;;;;;;8.35;2.10;;;;;;;49.00;13.16;93501.28;5046962;28;20255;-71
2022/06/23 14:00:46;;;;;;;5.78;1.90;;;;;;;50.42;12.03;93497.91;5049020;28;20696;-70